sensor_id;sensor_type;location;lat;lon;timestamp;temperature;humidity
32865;DHT22;19219;44.500;11.188;2022-07-06T00:00:06;25.60;99.90
32865;DHT22;19219;44.500;11.188;2022-07-06T00:02:32;25.50;99.90
32865;DHT22;19219;44.500;11.188;2022-07-06T00:04:58;25.30;99.90
32865;DHT22;19219;44.500;11.188;2022-07-06T00:07:24;25.20;99.90
32865;DHT22;19219;44.500;11.188;2022-07-06T00:09:49;24.90;99.90
32865;DHT22;19219;44.500;11.188;2022-07-06T00:12:15;24.70;99.90
32865;DHT22;19219;44.500;11.188;2022-07-06T00:14:41;24.50;99.90
32865;DHT22;19219;44.500;11.188;2022-07-06T00:17:07;24.40;99.90
32865;DHT22;19219;44.500;11.188;2022-07-06T00:19:33;24.30;99.90
32865;DHT22;19219;44.500;11.188;2022-07-06T00:21:59;24.30;99.90
32865;DHT22;19219;44.500;11.188;2022-07-06T00:24:25;24.10;99.90
32865;DHT22;19219;44.500;11.188;2022-07-06T00:26:50;24.20;99.90
32865;DHT22;19219;44.500;11.188;2022-07-06T00:29:16;24.30;99.90
32865;DHT22;19219;44.500;11.188;2022-07-06T00:31:42;24.50;99.90
32865;DHT22;19219;44.500;11.188;2022-07-06T00:34:08;24.50;99.90
32865;DHT22;19219;44.500;11.188;2022-07-06T00:36:33;24.60;99.90
32865;DHT22;19219;44.500;11.188;2022-07-06T00:38:59;24.70;99.90
32865;DHT22;19219;44.500;11.188;2022-07-06T00:41:25;24.80;99.90
32865;DHT22;19219;44.500;11.188;2022-07-06T00:43:53;25.10;99.90
32865;DHT22;19219;44.500;11.188;2022-07-06T00:46:25;25.30;99.90
32865;DHT22;19219;44.500;11.188;2022-07-06T00:48:52;25.40;99.90
32865;DHT22;19219;44.500;11.188;2022-07-06T00:51:18;25.50;99.90
32865;DHT22;19219;44.500;11.188;2022-07-06T00:53:44;25.30;99.90
32865;DHT22;19219;44.500;11.188;2022-07-06T00:56:11;25.20;99.90
32865;DHT22;19219;44.500;11.188;2022-07-06T00:58:37;25.20;99.90
32865;DHT22;19219;44.500;11.188;2022-07-06T01:01:03;25.30;99.90
32865;DHT22;19219;44.500;11.188;2022-07-06T01:03:28;25.30;99.90
32865;DHT22;19219;44.500;11.188;2022-07-06T01:05:54;25.30;99.90
32865;DHT22;19219;44.500;11.188;2022-07-06T01:08:20;25.40;99.90
32865;DHT22;19219;44.500;11.188;2022-07-06T01:10:46;25.40;99.90
32865;DHT22;19219;44.500;11.188;2022-07-06T01:13:11;25.40;99.90
32865;DHT22;19219;44.500;11.188;2022-07-06T01:15:37;25.40;99.90
32865;DHT22;19219;44.500;11.188;2022-07-06T01:18:04;25.50;99.90
32865;DHT22;19219;44.500;11.188;2022-07-06T01:20:30;25.40;99.90
32865;DHT22;19219;44.500;11.188;2022-07-06T01:22:59;25.40;99.90
32865;DHT22;19219;44.500;11.188;2022-07-06T01:25:25;25.40;99.90
32865;DHT22;19219;44.500;11.188;2022-07-06T01:27:50;25.40;99.90
32865;DHT22;19219;44.500;11.188;2022-07-06T01:30:18;25.40;99.90
32865;DHT22;19219;44.500;11.188;2022-07-06T01:32:44;25.30;99.90
32865;DHT22;19219;44.500;11.188;2022-07-06T01:35:12;25.30;99.90
32865;DHT22;19219;44.500;11.188;2022-07-06T01:37:39;25.30;99.90
32865;DHT22;19219;44.500;11.188;2022-07-06T01:40:07;25.30;99.90
32865;DHT22;19219;44.500;11.188;2022-07-06T01:42:33;25.20;99.90
32865;DHT22;19219;44.500;11.188;2022-07-06T01:44:59;25.20;99.90
32865;DHT22;19219;44.500;11.188;2022-07-06T01:47:25;25.20;99.90
32865;DHT22;19219;44.500;11.188;2022-07-06T01:49:50;25.20;99.90
32865;DHT22;19219;44.500;11.188;2022-07-06T01:52:17;25.20;99.90
32865;DHT22;19219;44.500;11.188;2022-07-06T01:54:43;25.20;99.90
32865;DHT22;19219;44.500;11.188;2022-07-06T01:57:08;25.20;99.90
32865;DHT22;19219;44.500;11.188;2022-07-06T01:59:34;25.30;99.90
32865;DHT22;19219;44.500;11.188;2022-07-06T02:02:00;25.40;99.90
32865;DHT22;19219;44.500;11.188;2022-07-06T02:04:25;25.40;99.90
32865;DHT22;19219;44.500;11.188;2022-07-06T02:06:51;25.40;99.90
32865;DHT22;19219;44.500;11.188;2022-07-06T02:09:17;25.40;99.90
32865;DHT22;19219;44.500;11.188;2022-07-06T02:11:43;25.40;99.90
32865;DHT22;19219;44.500;11.188;2022-07-06T02:14:09;25.30;99.90
32865;DHT22;19219;44.500;11.188;2022-07-06T02:16:35;25.40;99.90
32865;DHT22;19219;44.500;11.188;2022-07-06T02:19:00;25.40;99.90
32865;DHT22;19219;44.500;11.188;2022-07-06T02:21:26;25.40;99.90
32865;DHT22;19219;44.500;11.188;2022-07-06T02:23:52;25.40;99.90
32865;DHT22;19219;44.500;11.188;2022-07-06T02:26:18;25.30;99.90
32865;DHT22;19219;44.500;11.188;2022-07-06T02:28:43;25.20;99.90
32865;DHT22;19219;44.500;11.188;2022-07-06T02:31:10;25.20;99.90
32865;DHT22;19219;44.500;11.188;2022-07-06T02:33:38;25.20;99.90
32865;DHT22;19219;44.500;11.188;2022-07-06T02:36:04;25.20;99.90
32865;DHT22;19219;44.500;11.188;2022-07-06T02:38:30;25.30;99.90
32865;DHT22;19219;44.500;11.188;2022-07-06T02:40:55;25.30;99.90
32865;DHT22;19219;44.500;11.188;2022-07-06T02:43:21;25.30;99.90
32865;DHT22;19219;44.500;11.188;2022-07-06T02:45:47;25.30;99.90
32865;DHT22;19219;44.500;11.188;2022-07-06T02:48:12;25.30;99.90
32865;DHT22;19219;44.500;11.188;2022-07-06T02:50:38;25.30;99.90
32865;DHT22;19219;44.500;11.188;2022-07-06T02:53:04;25.40;99.90
32865;DHT22;19219;44.500;11.188;2022-07-06T02:55:30;25.40;99.90
32865;DHT22;19219;44.500;11.188;2022-07-06T02:57:55;25.50;99.90
32865;DHT22;19219;44.500;11.188;2022-07-06T03:00:21;25.50;99.90
32865;DHT22;19219;44.500;11.188;2022-07-06T03:02:47;25.50;99.90
32865;DHT22;19219;44.500;11.188;2022-07-06T03:05:12;25.50;99.90
32865;DHT22;19219;44.500;11.188;2022-07-06T03:07:38;25.50;99.90
32865;DHT22;19219;44.500;11.188;2022-07-06T03:10:04;25.60;99.90
32865;DHT22;19219;44.500;11.188;2022-07-06T03:12:30;25.50;99.90
32865;DHT22;19219;44.500;11.188;2022-07-06T03:14:55;25.50;99.90
32865;DHT22;19219;44.500;11.188;2022-07-06T03:17:21;25.50;99.90
32865;DHT22;19219;44.500;11.188;2022-07-06T03:19:47;25.40;99.90
32865;DHT22;19219;44.500;11.188;2022-07-06T03:22:13;25.40;99.90
32865;DHT22;19219;44.500;11.188;2022-07-06T03:24:38;25.40;99.90
32865;DHT22;19219;44.500;11.188;2022-07-06T03:27:04;25.40;99.90
32865;DHT22;19219;44.500;11.188;2022-07-06T03:29:30;25.40;99.90
32865;DHT22;19219;44.500;11.188;2022-07-06T03:31:55;25.40;99.90
32865;DHT22;19219;44.500;11.188;2022-07-06T03:34:21;25.20;99.90
32865;DHT22;19219;44.500;11.188;2022-07-06T03:36:47;25.20;99.90
32865;DHT22;19219;44.500;11.188;2022-07-06T03:39:13;25.20;99.90
32865;DHT22;19219;44.500;11.188;2022-07-06T03:41:38;25.30;99.90
32865;DHT22;19219;44.500;11.188;2022-07-06T03:44:04;25.30;99.90
32865;DHT22;19219;44.500;11.188;2022-07-06T03:46:30;25.20;99.90
32865;DHT22;19219;44.500;11.188;2022-07-06T03:48:55;25.20;99.90
32865;DHT22;19219;44.500;11.188;2022-07-06T03:51:21;25.10;99.90
32865;DHT22;19219;44.500;11.188;2022-07-06T03:53:47;25.10;99.90
32865;DHT22;19219;44.500;11.188;2022-07-06T03:56:12;25.20;99.90
32865;DHT22;19219;44.500;11.188;2022-07-06T03:58:54;25.10;99.90
32865;DHT22;19219;44.500;11.188;2022-07-06T04:01:20;25.20;99.90
32865;DHT22;19219;44.500;11.188;2022-07-06T04:03:46;25.20;99.90
32865;DHT22;19219;44.500;11.188;2022-07-06T04:06:11;25.20;99.90
32865;DHT22;19219;44.500;11.188;2022-07-06T04:08:37;25.20;99.90
32865;DHT22;19219;44.500;11.188;2022-07-06T04:11:03;25.20;99.90
32865;DHT22;19219;44.500;11.188;2022-07-06T04:13:29;25.20;99.90
32865;DHT22;19219;44.500;11.188;2022-07-06T04:15:54;25.30;99.90
32865;DHT22;19219;44.500;11.188;2022-07-06T04:18:20;25.40;99.90
32865;DHT22;19219;44.500;11.188;2022-07-06T04:20:46;25.30;99.90
32865;DHT22;19219;44.500;11.188;2022-07-06T04:23:12;25.30;99.90
32865;DHT22;19219;44.500;11.188;2022-07-06T04:25:37;25.30;99.90
32865;DHT22;19219;44.500;11.188;2022-07-06T04:28:03;25.40;99.90
32865;DHT22;19219;44.500;11.188;2022-07-06T04:30:29;25.30;99.90
32865;DHT22;19219;44.500;11.188;2022-07-06T04:32:55;25.30;99.90
32865;DHT22;19219;44.500;11.188;2022-07-06T04:35:21;25.20;99.90
32865;DHT22;19219;44.500;11.188;2022-07-06T04:37:47;25.20;99.90
32865;DHT22;19219;44.500;11.188;2022-07-06T04:40:14;25.20;99.90
32865;DHT22;19219;44.500;11.188;2022-07-06T04:42:40;25.20;99.90
32865;DHT22;19219;44.500;11.188;2022-07-06T04:45:06;25.30;99.90
32865;DHT22;19219;44.500;11.188;2022-07-06T04:47:32;25.40;99.90
32865;DHT22;19219;44.500;11.188;2022-07-06T04:49:57;25.40;99.90
32865;DHT22;19219;44.500;11.188;2022-07-06T04:52:23;25.50;99.90
32865;DHT22;19219;44.500;11.188;2022-07-06T04:54:49;25.50;99.90
32865;DHT22;19219;44.500;11.188;2022-07-06T04:57:14;25.50;99.90
32865;DHT22;19219;44.500;11.188;2022-07-06T04:59:40;25.60;99.90
32865;DHT22;19219;44.500;11.188;2022-07-06T05:02:06;25.80;99.90
32865;DHT22;19219;44.500;11.188;2022-07-06T05:04:32;25.90;99.90
32865;DHT22;19219;44.500;11.188;2022-07-06T05:06:58;25.90;99.90
32865;DHT22;19219;44.500;11.188;2022-07-06T05:09:24;26.00;99.90
32865;DHT22;19219;44.500;11.188;2022-07-06T05:11:49;25.90;99.90
32865;DHT22;19219;44.500;11.188;2022-07-06T05:14:15;26.00;99.90
32865;DHT22;19219;44.500;11.188;2022-07-06T05:16:41;26.00;99.90
32865;DHT22;19219;44.500;11.188;2022-07-06T05:19:06;26.00;99.90
32865;DHT22;19219;44.500;11.188;2022-07-06T05:21:32;25.90;99.90
32865;DHT22;19219;44.500;11.188;2022-07-06T05:23:57;25.90;99.90
32865;DHT22;19219;44.500;11.188;2022-07-06T05:26:23;25.90;99.90
32865;DHT22;19219;44.500;11.188;2022-07-06T05:28:49;26.00;99.90
32865;DHT22;19219;44.500;11.188;2022-07-06T05:31:15;26.00;99.90
32865;DHT22;19219;44.500;11.188;2022-07-06T05:33:40;26.10;99.90
32865;DHT22;19219;44.500;11.188;2022-07-06T05:36:06;26.20;99.90
32865;DHT22;19219;44.500;11.188;2022-07-06T05:38:33;26.40;99.90
32865;DHT22;19219;44.500;11.188;2022-07-06T05:40:59;26.50;99.90
32865;DHT22;19219;44.500;11.188;2022-07-06T05:43:24;26.60;99.90
32865;DHT22;19219;44.500;11.188;2022-07-06T05:45:50;26.60;99.90
32865;DHT22;19219;44.500;11.188;2022-07-06T05:48:16;26.70;99.90
32865;DHT22;19219;44.500;11.188;2022-07-06T05:51:00;26.80;99.90
32865;DHT22;19219;44.500;11.188;2022-07-06T05:53:26;27.00;99.90
32865;DHT22;19219;44.500;11.188;2022-07-06T05:55:52;27.50;99.90
32865;DHT22;19219;44.500;11.188;2022-07-06T05:58:17;27.90;99.90
32865;DHT22;19219;44.500;11.188;2022-07-06T06:00:43;28.10;99.90
32865;DHT22;19219;44.500;11.188;2022-07-06T06:03:09;28.00;99.90
32865;DHT22;19219;44.500;11.188;2022-07-06T06:05:34;27.80;99.90
32865;DHT22;19219;44.500;11.188;2022-07-06T06:08:00;27.80;99.90
32865;DHT22;19219;44.500;11.188;2022-07-06T06:10:26;27.70;99.90
32865;DHT22;19219;44.500;11.188;2022-07-06T06:12:51;27.50;99.90
32865;DHT22;19219;44.500;11.188;2022-07-06T06:15:17;27.40;99.90
32865;DHT22;19219;44.500;11.188;2022-07-06T06:17:43;27.40;99.90
32865;DHT22;19219;44.500;11.188;2022-07-06T06:20:11;27.40;99.90
32865;DHT22;19219;44.500;11.188;2022-07-06T06:22:54;27.20;99.90
32865;DHT22;19219;44.500;11.188;2022-07-06T06:25:26;27.50;99.90
32865;DHT22;19219;44.500;11.188;2022-07-06T06:27:52;28.30;99.90
32865;DHT22;19219;44.500;11.188;2022-07-06T06:30:19;29.50;99.90
32865;DHT22;19219;44.500;11.188;2022-07-06T06:32:44;30.00;99.90
32865;DHT22;19219;44.500;11.188;2022-07-06T06:35:10;29.80;99.90
32865;DHT22;19219;44.500;11.188;2022-07-06T06:37:37;29.40;99.90
32865;DHT22;19219;44.500;11.188;2022-07-06T06:40:04;29.00;99.90
32865;DHT22;19219;44.500;11.188;2022-07-06T06:42:30;28.80;99.90
32865;DHT22;19219;44.500;11.188;2022-07-06T06:44:56;28.60;99.90
32865;DHT22;19219;44.500;11.188;2022-07-06T06:47:21;28.60;99.90
32865;DHT22;19219;44.500;11.188;2022-07-06T06:49:47;28.50;99.90
32865;DHT22;19219;44.500;11.188;2022-07-06T06:52:13;28.60;99.90
32865;DHT22;19219;44.500;11.188;2022-07-06T06:54:39;28.80;99.90
32865;DHT22;19219;44.500;11.188;2022-07-06T06:57:05;29.00;99.90
32865;DHT22;19219;44.500;11.188;2022-07-06T06:59:30;29.00;99.90
32865;DHT22;19219;44.500;11.188;2022-07-06T07:01:56;29.00;99.90
32865;DHT22;19219;44.500;11.188;2022-07-06T07:04:22;29.20;99.90
32865;DHT22;19219;44.500;11.188;2022-07-06T07:06:48;29.60;99.90
32865;DHT22;19219;44.500;11.188;2022-07-06T07:09:13;29.70;99.90
32865;DHT22;19219;44.500;11.188;2022-07-06T07:11:39;29.60;99.90
32865;DHT22;19219;44.500;11.188;2022-07-06T07:14:05;29.90;99.90
32865;DHT22;19219;44.500;11.188;2022-07-06T07:16:30;30.40;99.90
32865;DHT22;19219;44.500;11.188;2022-07-06T07:18:56;30.80;99.90
32865;DHT22;19219;44.500;11.188;2022-07-06T07:21:22;31.20;99.90
32865;DHT22;19219;44.500;11.188;2022-07-06T07:23:47;31.70;99.90
32865;DHT22;19219;44.500;11.188;2022-07-06T07:26:14;31.80;99.90
32865;DHT22;19219;44.500;11.188;2022-07-06T07:28:40;31.70;99.90
32865;DHT22;19219;44.500;11.188;2022-07-06T07:31:06;32.00;99.90
32865;DHT22;19219;44.500;11.188;2022-07-06T07:33:32;32.40;99.90
32865;DHT22;19219;44.500;11.188;2022-07-06T07:35:57;32.70;99.90
32865;DHT22;19219;44.500;11.188;2022-07-06T07:38:23;32.70;99.90
32865;DHT22;19219;44.500;11.188;2022-07-06T07:40:49;32.80;99.90
32865;DHT22;19219;44.500;11.188;2022-07-06T07:43:14;33.00;99.90
32865;DHT22;19219;44.500;11.188;2022-07-06T07:45:40;33.20;99.60
32865;DHT22;19219;44.500;11.188;2022-07-06T07:48:06;33.20;99.80
32865;DHT22;19219;44.500;11.188;2022-07-06T07:50:32;33.40;99.10
32865;DHT22;19219;44.500;11.188;2022-07-06T07:52:58;33.70;99.10
32865;DHT22;19219;44.500;11.188;2022-07-06T07:55:23;33.40;98.30
32865;DHT22;19219;44.500;11.188;2022-07-06T07:57:49;33.40;98.30
32865;DHT22;19219;44.500;11.188;2022-07-06T08:00:15;33.20;98.50
32865;DHT22;19219;44.500;11.188;2022-07-06T08:02:40;33.40;98.60
32865;DHT22;19219;44.500;11.188;2022-07-06T08:05:08;33.40;98.60
32865;DHT22;19219;44.500;11.188;2022-07-06T08:07:34;33.60;98.30
32865;DHT22;19219;44.500;11.188;2022-07-06T08:09:59;33.70;98.20
32865;DHT22;19219;44.500;11.188;2022-07-06T08:12:25;33.70;98.10
32865;DHT22;19219;44.500;11.188;2022-07-06T08:14:51;33.80;98.00
32865;DHT22;19219;44.500;11.188;2022-07-06T08:17:17;33.90;98.00
32865;DHT22;19219;44.500;11.188;2022-07-06T08:19:42;33.90;96.90
32865;DHT22;19219;44.500;11.188;2022-07-06T08:22:09;33.70;97.60
32865;DHT22;19219;44.500;11.188;2022-07-06T08:24:35;33.90;97.60
32865;DHT22;19219;44.500;11.188;2022-07-06T08:27:01;34.00;97.60
32865;DHT22;19219;44.500;11.188;2022-07-06T08:29:27;34.10;98.00
32865;DHT22;19219;44.500;11.188;2022-07-06T08:31:56;34.10;97.20
32865;DHT22;19219;44.500;11.188;2022-07-06T08:34:22;33.60;97.10
32865;DHT22;19219;44.500;11.188;2022-07-06T08:36:48;33.20;97.60
32865;DHT22;19219;44.500;11.188;2022-07-06T08:39:14;33.00;98.40
32865;DHT22;19219;44.500;11.188;2022-07-06T08:41:42;32.90;98.10
32865;DHT22;19219;44.500;11.188;2022-07-06T08:44:09;33.20;98.00
32865;DHT22;19219;44.500;11.188;2022-07-06T08:46:38;33.30;97.70
32865;DHT22;19219;44.500;11.188;2022-07-06T08:49:06;33.20;97.90
32865;DHT22;19219;44.500;11.188;2022-07-06T08:51:32;33.40;97.70
32865;DHT22;19219;44.500;11.188;2022-07-06T08:54:00;33.40;97.60
32865;DHT22;19219;44.500;11.188;2022-07-06T08:56:28;33.00;97.30
32865;DHT22;19219;44.500;11.188;2022-07-06T08:58:54;32.80;98.10
32865;DHT22;19219;44.500;11.188;2022-07-06T09:01:21;32.90;97.80
32865;DHT22;19219;44.500;11.188;2022-07-06T09:03:49;32.70;98.20
32865;DHT22;19219;44.500;11.188;2022-07-06T09:06:18;33.00;98.20
32865;DHT22;19219;44.500;11.188;2022-07-06T09:08:46;32.90;97.90
32865;DHT22;19219;44.500;11.188;2022-07-06T09:11:13;33.00;97.80
32865;DHT22;19219;44.500;11.188;2022-07-06T09:13:39;33.00;97.80
32865;DHT22;19219;44.500;11.188;2022-07-06T09:16:12;33.10;97.70
32865;DHT22;19219;44.500;11.188;2022-07-06T09:18:39;33.20;97.50
32865;DHT22;19219;44.500;11.188;2022-07-06T09:21:08;33.50;97.60
32865;DHT22;19219;44.500;11.188;2022-07-06T09:23:34;33.60;97.10
32865;DHT22;19219;44.500;11.188;2022-07-06T09:26:05;33.50;97.10
32865;DHT22;19219;44.500;11.188;2022-07-06T09:28:44;33.50;97.30
32865;DHT22;19219;44.500;11.188;2022-07-06T09:31:10;33.60;97.60
32865;DHT22;19219;44.500;11.188;2022-07-06T09:33:36;33.70;97.10
32865;DHT22;19219;44.500;11.188;2022-07-06T09:36:02;33.80;96.40
32865;DHT22;19219;44.500;11.188;2022-07-06T09:38:28;33.90;96.60
32865;DHT22;19219;44.500;11.188;2022-07-06T09:40:54;34.10;96.50
32865;DHT22;19219;44.500;11.188;2022-07-06T09:43:24;34.20;96.70
32865;DHT22;19219;44.500;11.188;2022-07-06T09:45:51;34.10;96.20
32865;DHT22;19219;44.500;11.188;2022-07-06T09:48:22;33.90;96.40
32865;DHT22;19219;44.500;11.188;2022-07-06T09:50:53;34.00;96.30
32865;DHT22;19219;44.500;11.188;2022-07-06T09:53:22;34.00;96.50
32865;DHT22;19219;44.500;11.188;2022-07-06T09:55:54;34.10;96.30
32865;DHT22;19219;44.500;11.188;2022-07-06T09:58:21;33.70;96.60
32865;DHT22;19219;44.500;11.188;2022-07-06T10:00:48;33.10;96.80
32865;DHT22;19219;44.500;11.188;2022-07-06T10:03:15;32.60;97.60
32865;DHT22;19219;44.500;11.188;2022-07-06T10:05:43;32.40;98.80
32865;DHT22;19219;44.500;11.188;2022-07-06T10:08:11;32.20;98.60
32865;DHT22;19219;44.500;11.188;2022-07-06T10:10:39;32.30;98.70
32865;DHT22;19219;44.500;11.188;2022-07-06T10:13:05;32.70;98.40
32865;DHT22;19219;44.500;11.188;2022-07-06T10:15:36;32.70;97.80
32865;DHT22;19219;44.500;11.188;2022-07-06T10:18:05;32.50;98.60
32865;DHT22;19219;44.500;11.188;2022-07-06T10:20:33;32.40;98.40
32865;DHT22;19219;44.500;11.188;2022-07-06T10:23:00;32.20;98.80
32865;DHT22;19219;44.500;11.188;2022-07-06T10:25:26;31.90;99.20
32865;DHT22;19219;44.500;11.188;2022-07-06T10:27:53;31.70;99.30
32865;DHT22;19219;44.500;11.188;2022-07-06T10:30:19;31.60;99.30
32865;DHT22;19219;44.500;11.188;2022-07-06T10:32:47;31.50;99.80
32865;DHT22;19219;44.500;11.188;2022-07-06T10:35:14;31.40;99.60
32865;DHT22;19219;44.500;11.188;2022-07-06T10:37:40;31.40;99.90
32865;DHT22;19219;44.500;11.188;2022-07-06T10:40:06;31.50;99.60
32865;DHT22;19219;44.500;11.188;2022-07-06T10:43:01;31.90;99.90
32865;DHT22;19219;44.500;11.188;2022-07-06T10:50:37;32.80;97.60
32865;DHT22;19219;44.500;11.188;2022-07-06T10:53:10;32.80;97.60
32865;DHT22;19219;44.500;11.188;2022-07-06T10:55:38;32.80;97.70
32865;DHT22;19219;44.500;11.188;2022-07-06T10:58:04;33.00;97.40
32865;DHT22;19219;44.500;11.188;2022-07-06T11:08:57;33.10;97.60
32865;DHT22;19219;44.500;11.188;2022-07-06T11:14:09;33.50;96.10
32865;DHT22;19219;44.500;11.188;2022-07-06T11:19:15;33.40;97.00
32865;DHT22;19219;44.500;11.188;2022-07-06T11:21:46;33.20;96.30
32865;DHT22;19219;44.500;11.188;2022-07-06T11:24:17;33.00;96.50
32865;DHT22;19219;44.500;11.188;2022-07-06T11:26:48;33.20;96.70
32865;DHT22;19219;44.500;11.188;2022-07-06T11:29:15;33.50;96.60
32865;DHT22;19219;44.500;11.188;2022-07-06T11:31:44;33.80;96.30
32865;DHT22;19219;44.500;11.188;2022-07-06T11:34:12;34.10;96.10
32865;DHT22;19219;44.500;11.188;2022-07-06T11:36:40;33.90;95.20
32865;DHT22;19219;44.500;11.188;2022-07-06T11:39:06;33.40;95.60
32865;DHT22;19219;44.500;11.188;2022-07-06T11:41:33;33.30;95.40
32865;DHT22;19219;44.500;11.188;2022-07-06T11:43:58;33.30;94.30
32865;DHT22;19219;44.500;11.188;2022-07-06T11:46:30;33.20;94.10
32865;DHT22;19219;44.500;11.188;2022-07-06T11:49:01;33.40;94.90
32865;DHT22;19219;44.500;11.188;2022-07-06T11:51:34;33.70;94.40
32865;DHT22;19219;44.500;11.188;2022-07-06T11:54:02;33.70;93.90
32865;DHT22;19219;44.500;11.188;2022-07-06T11:56:32;33.60;93.80
32865;DHT22;19219;44.500;11.188;2022-07-06T11:58:59;33.50;93.30
32865;DHT22;19219;44.500;11.188;2022-07-06T12:01:27;33.50;94.00
32865;DHT22;19219;44.500;11.188;2022-07-06T12:03:57;33.40;93.60
32865;DHT22;19219;44.500;11.188;2022-07-06T12:06:24;33.30;93.30
32865;DHT22;19219;44.500;11.188;2022-07-06T12:08:55;33.40;93.60
32865;DHT22;19219;44.500;11.188;2022-07-06T12:11:29;33.50;93.80
32865;DHT22;19219;44.500;11.188;2022-07-06T12:13:57;33.60;92.80
32865;DHT22;19219;44.500;11.188;2022-07-06T12:16:30;33.60;92.90
32865;DHT22;19219;44.500;11.188;2022-07-06T12:18:56;33.40;92.40
32865;DHT22;19219;44.500;11.188;2022-07-06T12:21:21;33.60;94.00
32865;DHT22;19219;44.500;11.188;2022-07-06T12:23:51;33.70;91.80
32865;DHT22;19219;44.500;11.188;2022-07-06T12:26:19;33.70;91.80
32865;DHT22;19219;44.500;11.188;2022-07-06T12:28:46;33.80;91.90
32865;DHT22;19219;44.500;11.188;2022-07-06T12:31:34;33.80;91.80
32865;DHT22;19219;44.500;11.188;2022-07-06T12:34:00;33.50;92.10
32865;DHT22;19219;44.500;11.188;2022-07-06T12:36:26;33.50;91.90
32865;DHT22;19219;44.500;11.188;2022-07-06T12:38:51;33.20;91.90
32865;DHT22;19219;44.500;11.188;2022-07-06T12:41:31;33.10;92.10
32865;DHT22;19219;44.500;11.188;2022-07-06T12:46:35;33.30;92.30
32865;DHT22;19219;44.500;11.188;2022-07-06T12:49:03;33.20;92.00
32865;DHT22;19219;44.500;11.188;2022-07-06T12:54:17;33.10;91.60
32865;DHT22;19219;44.500;11.188;2022-07-06T12:59:22;33.00;92.20
32865;DHT22;19219;44.500;11.188;2022-07-06T13:01:49;33.00;90.90
32865;DHT22;19219;44.500;11.188;2022-07-06T13:04:16;32.80;90.80
32865;DHT22;19219;44.500;11.188;2022-07-06T13:06:41;32.80;91.70
32865;DHT22;19219;44.500;11.188;2022-07-06T13:09:07;32.80;92.20
32865;DHT22;19219;44.500;11.188;2022-07-06T13:11:33;32.90;92.10
32865;DHT22;19219;44.500;11.188;2022-07-06T13:13:59;33.00;92.20
32865;DHT22;19219;44.500;11.188;2022-07-06T13:16:25;33.00;91.30
32865;DHT22;19219;44.500;11.188;2022-07-06T13:18:56;32.90;92.20
32865;DHT22;19219;44.500;11.188;2022-07-06T13:21:21;32.90;92.10
32865;DHT22;19219;44.500;11.188;2022-07-06T13:23:47;33.00;92.00
32865;DHT22;19219;44.500;11.188;2022-07-06T13:26:13;33.00;91.50
32865;DHT22;19219;44.500;11.188;2022-07-06T13:28:38;32.90;91.70
32865;DHT22;19219;44.500;11.188;2022-07-06T13:31:04;32.90;91.50
32865;DHT22;19219;44.500;11.188;2022-07-06T13:33:30;32.70;91.40
32865;DHT22;19219;44.500;11.188;2022-07-06T13:35:56;32.60;91.10
32865;DHT22;19219;44.500;11.188;2022-07-06T13:38:21;32.60;90.90
32865;DHT22;19219;44.500;11.188;2022-07-06T13:40:47;32.50;90.50
32865;DHT22;19219;44.500;11.188;2022-07-06T13:43:12;32.40;90.90
32865;DHT22;19219;44.500;11.188;2022-07-06T13:45:38;32.30;91.20
32865;DHT22;19219;44.500;11.188;2022-07-06T13:48:04;32.20;91.10
32865;DHT22;19219;44.500;11.188;2022-07-06T13:50:30;32.20;91.20
32865;DHT22;19219;44.500;11.188;2022-07-06T13:52:58;32.10;90.60
32865;DHT22;19219;44.500;11.188;2022-07-06T13:55:24;32.00;91.10
32865;DHT22;19219;44.500;11.188;2022-07-06T13:57:50;32.00;91.30
32865;DHT22;19219;44.500;11.188;2022-07-06T14:00:15;31.90;90.90
32865;DHT22;19219;44.500;11.188;2022-07-06T14:02:46;31.90;91.60
32865;DHT22;19219;44.500;11.188;2022-07-06T14:05:12;31.90;91.70
32865;DHT22;19219;44.500;11.188;2022-07-06T14:07:37;31.90;91.50
32865;DHT22;19219;44.500;11.188;2022-07-06T14:10:03;31.80;91.60
32865;DHT22;19219;44.500;11.188;2022-07-06T14:12:29;31.80;91.50
32865;DHT22;19219;44.500;11.188;2022-07-06T14:14:55;31.70;91.20
32865;DHT22;19219;44.500;11.188;2022-07-06T14:17:21;31.70;90.80
32865;DHT22;19219;44.500;11.188;2022-07-06T14:19:48;31.80;90.90
32865;DHT22;19219;44.500;11.188;2022-07-06T14:22:13;31.70;90.30
32865;DHT22;19219;44.500;11.188;2022-07-06T14:24:39;31.60;89.20
32865;DHT22;19219;44.500;11.188;2022-07-06T14:27:05;31.60;90.00
32865;DHT22;19219;44.500;11.188;2022-07-06T14:29:30;31.50;89.10
32865;DHT22;19219;44.500;11.188;2022-07-06T14:31:56;31.50;88.50
32865;DHT22;19219;44.500;11.188;2022-07-06T14:34:21;31.50;89.20
32865;DHT22;19219;44.500;11.188;2022-07-06T14:36:47;31.50;89.20
32865;DHT22;19219;44.500;11.188;2022-07-06T14:39:13;31.50;88.80
32865;DHT22;19219;44.500;11.188;2022-07-06T14:41:39;31.50;87.90
32865;DHT22;19219;44.500;11.188;2022-07-06T14:44:04;31.40;87.20
32865;DHT22;19219;44.500;11.188;2022-07-06T14:46:31;31.30;86.10
32865;DHT22;19219;44.500;11.188;2022-07-06T14:48:57;31.20;87.10
32865;DHT22;19219;44.500;11.188;2022-07-06T14:51:22;31.20;87.30
32865;DHT22;19219;44.500;11.188;2022-07-06T14:53:48;31.20;86.60
32865;DHT22;19219;44.500;11.188;2022-07-06T14:56:14;31.20;86.70
32865;DHT22;19219;44.500;11.188;2022-07-06T14:58:40;31.10;86.40
32865;DHT22;19219;44.500;11.188;2022-07-06T15:01:05;31.10;85.80
32865;DHT22;19219;44.500;11.188;2022-07-06T15:03:31;31.00;84.50
32865;DHT22;19219;44.500;11.188;2022-07-06T15:05:56;30.90;84.80
32865;DHT22;19219;44.500;11.188;2022-07-06T15:08:22;30.90;84.80
32865;DHT22;19219;44.500;11.188;2022-07-06T15:10:48;30.90;85.00
32865;DHT22;19219;44.500;11.188;2022-07-06T15:13:14;30.90;84.70
32865;DHT22;19219;44.500;11.188;2022-07-06T15:15:40;31.00;84.10
32865;DHT22;19219;44.500;11.188;2022-07-06T15:18:06;30.90;83.40
32865;DHT22;19219;44.500;11.188;2022-07-06T15:20:31;30.90;83.40
32865;DHT22;19219;44.500;11.188;2022-07-06T15:22:58;30.80;83.10
32865;DHT22;19219;44.500;11.188;2022-07-06T15:25:24;30.80;83.80
32865;DHT22;19219;44.500;11.188;2022-07-06T15:27:51;30.80;84.70
32865;DHT22;19219;44.500;11.188;2022-07-06T15:30:17;30.80;84.10
32865;DHT22;19219;44.500;11.188;2022-07-06T15:32:43;30.70;83.90
32865;DHT22;19219;44.500;11.188;2022-07-06T15:35:08;30.70;83.40
32865;DHT22;19219;44.500;11.188;2022-07-06T15:37:35;30.70;83.20